createdAt,value
2022-09-14T00:00:33.250Z,21.34
2022-09-14T00:01:33.307Z,21.33
2022-09-14T00:02:33.382Z,21.31
2022-09-14T00:03:33.249Z,21.30
2022-09-14T00:04:33.219Z,21.30
2022-09-14T00:05:33.203Z,21.27
2022-09-14T00:06:33.202Z,21.27
2022-09-14T00:07:33.183Z,21.27
2022-09-14T00:08:33.170Z,21.27
2022-09-14T00:09:33.148Z,21.26
2022-09-14T00:10:33.132Z,21.27
2022-09-14T00:11:33.119Z,21.26
2022-09-14T00:12:33.143Z,21.26
2022-09-14T00:13:33.104Z,21.26
2022-09-14T00:14:33.093Z,21.26
2022-09-14T00:15:33.093Z,21.26
2022-09-14T00:16:33.151Z,21.21
2022-09-14T00:17:33.064Z,21.18
2022-09-14T00:18:33.064Z,21.13
2022-09-14T00:19:33.055Z,21.12
2022-09-14T00:20:33.046Z,21.12
2022-09-14T00:21:33.035Z,21.11
2022-09-14T00:22:33.025Z,21.11
2022-09-14T00:23:32.986Z,21.11
2022-09-14T00:24:32.996Z,21.11
2022-09-14T00:25:32.986Z,21.12
2022-09-14T00:26:32.968Z,21.13
2022-09-14T00:27:32.965Z,21.12
2022-09-14T00:28:32.967Z,21.12
2022-09-14T00:29:32.937Z,21.13
2022-09-14T00:30:32.937Z,21.12
2022-09-14T00:31:32.958Z,21.12
2022-09-14T00:32:32.918Z,21.12
2022-09-14T00:33:32.907Z,21.12
2022-09-14T00:34:32.896Z,21.13
2022-09-14T00:35:32.860Z,21.13
2022-09-14T00:36:32.870Z,21.13
2022-09-14T00:37:32.850Z,21.12
2022-09-14T00:38:32.850Z,21.12
2022-09-14T00:39:32.821Z,21.13
2022-09-14T00:40:32.908Z,21.15
2022-09-14T00:41:32.815Z,21.13
2022-09-14T00:42:32.791Z,21.13
2022-09-14T00:43:32.782Z,21.15
2022-09-14T00:44:32.772Z,21.15
2022-09-14T00:45:32.810Z,21.15
2022-09-14T00:46:32.743Z,21.13
2022-09-14T00:47:32.740Z,21.12
2022-09-14T00:48:32.740Z,21.12
2022-09-14T00:49:32.703Z,21.11
2022-09-14T00:50:32.704Z,21.11
2022-09-14T00:51:32.683Z,21.09
2022-09-14T00:52:32.703Z,21.09
2022-09-14T00:53:32.694Z,21.11
2022-09-14T00:54:32.693Z,21.11
2022-09-14T00:55:32.647Z,21.09
2022-09-14T00:56:32.637Z,21.11
2022-09-14T00:57:32.623Z,21.11
2022-09-14T00:58:32.624Z,21.09
2022-09-14T00:59:32.616Z,21.09
2022-09-14T01:00:32.626Z,21.09
2022-09-14T01:01:32.627Z,21.11
2022-09-14T01:02:32.642Z,21.11
2022-09-14T01:03:32.574Z,21.09
2022-09-14T01:04:32.567Z,21.11
2022-09-14T01:05:32.565Z,21.09
2022-09-14T01:06:32.536Z,21.09
2022-09-14T01:07:32.548Z,21.11
2022-09-14T01:08:32.527Z,21.09
2022-09-14T01:09:32.490Z,21.11
2022-09-14T01:10:32.491Z,21.09
2022-09-14T01:11:32.480Z,21.09
2022-09-14T01:12:32.468Z,21.09
2022-09-14T01:13:32.459Z,21.09
2022-09-14T01:14:32.461Z,21.08
2022-09-14T01:15:32.446Z,21.06
2022-09-14T01:16:32.484Z,21.06
2022-09-14T01:17:32.420Z,21.06
2022-09-14T01:18:32.402Z,21.06
2022-09-14T01:19:32.391Z,21.05
2022-09-14T01:20:32.383Z,21.08
2022-09-14T01:21:32.374Z,21.09
2022-09-14T01:22:32.372Z,21.08
2022-09-14T01:23:32.343Z,21.08
2022-09-14T01:24:32.342Z,21.08
2022-09-14T01:25:32.334Z,21.11
2022-09-14T01:26:32.374Z,21.09
2022-09-14T01:27:32.306Z,21.08
2022-09-14T01:28:32.312Z,21.05
2022-09-14T01:29:32.273Z,21.00
2022-09-14T01:30:32.285Z,20.96
2022-09-14T01:31:32.310Z,20.91
2022-09-14T01:32:32.262Z,20.87
2022-09-14T01:33:32.243Z,20.81
2022-09-14T01:34:32.235Z,20.76
2022-09-14T01:35:32.216Z,20.76
2022-09-14T01:36:32.196Z,20.75
2022-09-14T01:37:32.216Z,20.78
2022-09-14T01:38:32.199Z,20.78
2022-09-14T01:39:32.177Z,20.82
2022-09-14T01:40:32.186Z,20.82
2022-09-14T01:41:32.147Z,20.85
2022-09-14T01:42:32.128Z,20.78
2022-09-14T01:43:36.167Z,20.71
2022-09-14T01:44:32.119Z,20.64
2022-09-14T01:45:32.136Z,20.60
2022-09-14T01:46:32.080Z,20.57
2022-09-14T01:47:32.093Z,20.51
2022-09-14T01:48:32.094Z,20.38
2022-09-14T01:49:32.060Z,20.27
2022-09-14T01:50:32.064Z,20.19
2022-09-14T01:51:32.076Z,20.12
2022-09-14T01:52:32.035Z,20.02
2022-09-14T01:53:32.033Z,19.94
2022-09-14T01:54:32.026Z,19.90
2022-09-14T01:55:32.005Z,19.83
2022-09-14T01:56:32.555Z,19.79
2022-09-14T01:57:31.985Z,19.76
2022-09-14T01:58:31.987Z,19.75
2022-09-14T01:59:31.968Z,19.70
2022-09-14T02:00:32.037Z,19.67
2022-09-14T02:01:31.947Z,19.64
2022-09-14T02:02:31.998Z,19.61
2022-09-14T02:03:31.926Z,19.58
2022-09-14T02:04:31.916Z,19.57
2022-09-14T02:05:31.882Z,19.55
2022-09-14T02:06:31.888Z,19.53
2022-09-14T02:07:31.851Z,19.52
2022-09-14T02:08:31.891Z,19.52
2022-09-14T02:09:31.860Z,19.49
2022-09-14T02:10:31.830Z,19.50
2022-09-14T02:11:31.841Z,19.49
2022-09-14T02:12:31.829Z,19.46
2022-09-14T02:13:31.829Z,19.47
2022-09-14T02:14:31.831Z,19.47
2022-09-14T02:15:31.808Z,19.43
2022-09-14T02:16:31.885Z,19.45
2022-09-14T02:17:31.760Z,19.42
2022-09-14T02:18:31.770Z,19.43
2022-09-14T02:19:31.741Z,19.42
2022-09-14T02:20:31.759Z,19.42
2022-09-14T02:21:31.731Z,19.42
2022-09-14T02:22:31.732Z,19.35
2022-09-14T02:23:31.694Z,19.34
2022-09-14T02:24:31.670Z,19.31
2022-09-14T02:25:31.693Z,19.30
2022-09-14T02:26:31.691Z,19.31
2022-09-14T02:27:31.663Z,19.31
2022-09-14T02:28:31.664Z,19.31
2022-09-14T02:29:31.645Z,19.32
2022-09-14T02:30:31.633Z,19.32
2022-09-14T02:31:31.677Z,19.34
2022-09-14T02:32:31.634Z,19.39
2022-09-14T02:33:31.595Z,19.40
2022-09-14T02:34:31.559Z,19.42
2022-09-14T02:35:31.556Z,19.43
2022-09-14T02:36:31.576Z,19.45
2022-09-14T02:37:31.556Z,19.46
2022-09-14T02:38:31.575Z,19.47
2022-09-14T02:39:31.501Z,19.47
2022-09-14T02:40:31.595Z,19.47
2022-09-14T02:41:31.510Z,19.50
2022-09-14T02:42:31.517Z,19.49
2022-09-14T02:43:31.464Z,19.49
2022-09-14T02:44:31.488Z,19.49
2022-09-14T02:45:31.469Z,19.49
2022-09-14T02:46:31.499Z,19.50
2022-09-14T02:47:31.468Z,19.53
2022-09-14T02:48:31.416Z,19.53
2022-09-14T02:49:31.439Z,19.55
2022-09-14T02:50:31.438Z,19.53
2022-09-14T02:51:31.410Z,19.52
2022-09-14T02:52:31.374Z,19.53
2022-09-14T02:53:31.400Z,19.55
2022-09-14T02:54:31.394Z,19.53
2022-09-14T02:55:31.369Z,19.53
2022-09-14T02:56:31.337Z,19.55
2022-09-14T02:57:31.314Z,19.55
2022-09-14T02:58:31.330Z,19.53
2022-09-14T02:59:31.353Z,19.52
2022-09-14T03:00:31.385Z,19.53
2022-09-14T03:01:31.352Z,19.50
2022-09-14T03:02:31.304Z,19.52
2022-09-14T03:03:35.486Z,19.52
2022-09-14T03:04:31.258Z,19.52
2022-09-14T03:05:31.230Z,19.50
2022-09-14T03:06:31.259Z,19.52
2022-09-14T03:07:31.224Z,19.52
2022-09-14T03:08:31.241Z,19.46
2022-09-14T03:09:31.227Z,19.43
2022-09-14T03:10:31.225Z,19.45
2022-09-14T03:11:31.185Z,19.42
2022-09-14T03:12:31.192Z,19.42
2022-09-14T03:13:31.185Z,19.40
2022-09-14T03:14:31.176Z,19.40
2022-09-14T03:15:31.170Z,19.42
2022-09-14T03:16:31.203Z,19.40
2022-09-14T03:17:31.127Z,19.40
2022-09-14T03:18:31.113Z,19.39
2022-09-14T03:19:31.126Z,19.38
2022-09-14T03:20:31.108Z,19.35
2022-09-14T03:21:31.088Z,19.35
2022-09-14T03:22:31.080Z,19.35
2022-09-14T03:23:31.079Z,19.32
2022-09-14T03:24:31.043Z,19.31
2022-09-14T03:25:31.059Z,19.32
2022-09-14T03:26:31.004Z,19.32
2022-09-14T03:27:31.029Z,19.35
2022-09-14T03:28:31.039Z,19.34
2022-09-14T03:29:30.999Z,19.34
2022-09-14T03:30:30.988Z,19.31
2022-09-14T03:31:31.006Z,19.30
2022-09-14T03:32:30.955Z,19.28
2022-09-14T03:33:30.978Z,19.27
2022-09-14T03:34:30.970Z,19.27
2022-09-14T03:35:30.931Z,19.28
2022-09-14T03:36:30.979Z,19.28
2022-09-14T03:37:30.930Z,19.28
2022-09-14T03:38:30.905Z,19.30
2022-09-14T03:39:30.902Z,19.34
2022-09-14T03:40:31.022Z,19.34
2022-09-14T03:41:30.896Z,19.34
2022-09-14T03:42:30.872Z,19.35
2022-09-14T03:43:30.864Z,19.35
2022-09-14T03:44:30.854Z,19.35
2022-09-14T03:45:30.825Z,19.38
2022-09-14T03:46:30.888Z,19.35
2022-09-14T03:47:30.825Z,19.34
2022-09-14T03:48:30.835Z,19.32
2022-09-14T03:49:30.777Z,19.32
2022-09-14T03:50:30.750Z,19.30
2022-09-14T03:51:30.765Z,19.30
2022-09-14T03:52:30.767Z,19.30
2022-09-14T03:53:30.766Z,19.30
2022-09-14T03:54:30.746Z,19.28
2022-09-14T03:55:30.704Z,19.30
2022-09-14T03:56:30.717Z,19.31
2022-09-14T03:57:30.699Z,19.31
2022-09-14T03:58:30.705Z,19.31
2022-09-14T03:59:30.715Z,19.30
2022-09-14T04:00:30.668Z,19.31
2022-09-14T04:01:30.678Z,19.31
2022-09-14T04:02:30.751Z,19.31
2022-09-14T04:03:30.603Z,19.30
2022-09-14T04:04:30.650Z,19.28
2022-09-14T04:05:30.642Z,19.30
2022-09-14T04:06:30.595Z,19.31
2022-09-14T04:07:30.600Z,19.32
2022-09-14T04:08:30.592Z,19.32
2022-09-14T04:09:30.579Z,19.35
2022-09-14T04:10:30.568Z,19.38
2022-09-14T04:11:30.571Z,19.38
2022-09-14T04:12:30.552Z,19.38
2022-09-14T04:13:30.541Z,19.38
2022-09-14T04:14:30.509Z,19.35
2022-09-14T04:15:30.512Z,19.35
2022-09-14T04:16:30.548Z,19.35
2022-09-14T04:17:30.475Z,19.35
2022-09-14T04:18:30.475Z,19.34
2022-09-14T04:19:30.486Z,19.30
2022-09-14T04:20:30.463Z,19.23
2022-09-14T04:21:30.442Z,19.27
2022-09-14T04:22:30.444Z,19.30
2022-09-14T04:23:30.432Z,19.38
2022-09-14T04:24:31.020Z,19.43
2022-09-14T04:25:30.415Z,19.49
2022-09-14T04:26:30.395Z,19.53
2022-09-14T04:27:30.367Z,19.55
2022-09-14T04:28:30.373Z,19.58
2022-09-14T04:29:30.367Z,19.57
2022-09-14T04:30:30.349Z,19.57
2022-09-14T04:31:30.522Z,19.57
2022-09-14T04:32:34.179Z,19.57
2022-09-14T04:33:30.329Z,19.53
2022-09-14T04:34:30.316Z,19.53
2022-09-14T04:35:30.287Z,19.52
2022-09-14T04:36:30.278Z,19.52
2022-09-14T04:37:30.278Z,19.49
2022-09-14T04:38:30.802Z,19.50
2022-09-14T04:39:30.264Z,19.47
2022-09-14T04:40:30.268Z,19.45
2022-09-14T04:41:30.221Z,19.45
2022-09-14T04:42:30.237Z,19.43
2022-09-14T04:43:30.211Z,19.43
2022-09-14T04:44:30.178Z,19.45
2022-09-14T04:45:30.179Z,19.43
2022-09-14T04:46:30.252Z,19.43
2022-09-14T04:47:30.180Z,19.43
2022-09-14T04:48:30.161Z,19.42
2022-09-14T04:49:30.152Z,19.40
2022-09-14T04:50:30.138Z,19.39
2022-09-14T04:51:30.123Z,19.39
2022-09-14T04:52:30.111Z,19.39
2022-09-14T04:53:30.075Z,19.38
2022-09-14T04:54:30.123Z,19.38
2022-09-14T04:55:30.057Z,19.38
2022-09-14T04:56:30.058Z,19.38
2022-09-14T04:57:30.054Z,19.35
2022-09-14T04:58:30.054Z,19.35
2022-09-14T04:59:30.044Z,19.38
2022-09-14T05:00:30.024Z,19.38
2022-09-14T05:01:30.039Z,19.38
2022-09-14T05:02:30.073Z,19.39
2022-09-14T05:03:30.015Z,19.38
2022-09-14T05:04:29.994Z,19.38
2022-09-14T05:05:29.955Z,19.38
2022-09-14T05:06:29.956Z,19.38
2022-09-14T05:07:29.967Z,19.34
2022-09-14T05:08:29.948Z,19.35
2022-09-14T05:09:29.948Z,19.35
2022-09-14T05:10:29.917Z,19.34
2022-09-14T05:11:29.890Z,19.34
2022-09-14T05:12:29.999Z,19.39
2022-09-14T05:13:29.878Z,19.39
2022-09-14T05:14:29.898Z,19.42
2022-09-14T05:15:29.868Z,19.42
2022-09-14T05:16:29.951Z,19.43
2022-09-14T05:17:29.822Z,19.45
2022-09-14T05:18:29.869Z,19.42
2022-09-14T05:19:29.827Z,19.40
2022-09-14T05:20:29.783Z,19.39
2022-09-14T05:21:29.810Z,19.39
2022-09-14T05:22:29.811Z,19.39
2022-09-14T05:23:29.871Z,19.40
2022-09-14T05:24:29.780Z,19.40
2022-09-14T05:25:29.767Z,19.40
2022-09-14T05:26:29.771Z,19.40
2022-09-14T05:27:29.762Z,19.40
2022-09-14T05:28:29.695Z,19.39
2022-09-14T05:29:29.745Z,19.40
2022-09-14T05:30:29.686Z,19.39
2022-09-14T05:31:29.811Z,19.40
2022-09-14T05:32:29.722Z,19.40
2022-09-14T05:33:29.663Z,19.43
2022-09-14T05:34:29.762Z,19.45
2022-09-14T05:35:30.062Z,19.45
2022-09-14T05:36:29.675Z,19.47
2022-09-14T05:37:29.665Z,19.47
2022-09-14T05:38:29.630Z,19.47
2022-09-14T05:39:29.635Z,19.47
2022-09-14T05:40:29.678Z,19.47
2022-09-14T05:41:29.585Z,19.49
2022-09-14T05:42:29.575Z,19.50
2022-09-14T05:43:29.571Z,19.53
2022-09-14T05:44:29.554Z,19.57
2022-09-14T05:45:29.532Z,19.60
2022-09-14T05:46:29.566Z,19.61
2022-09-14T05:47:29.538Z,19.60
2022-09-14T05:48:29.516Z,19.60
2022-09-14T05:49:29.517Z,19.61
2022-09-14T05:50:29.514Z,19.58
2022-09-14T05:51:29.481Z,19.58
2022-09-14T05:52:29.461Z,19.58
2022-09-14T05:53:29.478Z,19.55
2022-09-14T05:54:29.478Z,19.57
2022-09-14T05:55:29.446Z,19.58
2022-09-14T05:56:29.437Z,19.60
2022-09-14T05:57:29.425Z,19.60
2022-09-14T05:58:29.421Z,19.61
2022-09-14T05:59:29.419Z,19.64
2022-09-14T06:00:29.374Z,19.65
2022-09-14T06:01:29.459Z,19.70
2022-09-14T06:02:29.360Z,19.70
2022-09-14T06:03:29.377Z,19.72
2022-09-14T06:04:29.351Z,19.76
2022-09-14T06:05:29.358Z,19.78
2022-09-14T06:06:29.350Z,19.78
2022-09-14T06:07:29.303Z,19.80
2022-09-14T06:08:29.292Z,19.80
2022-09-14T06:09:33.086Z,19.83
2022-09-14T06:10:29.266Z,19.83
2022-09-14T06:11:29.273Z,19.85
2022-09-14T06:12:29.273Z,19.85
2022-09-14T06:13:29.309Z,19.83
2022-09-14T06:14:29.235Z,19.85
2022-09-14T06:15:29.228Z,19.83
2022-09-14T06:16:29.266Z,19.86
2022-09-14T06:17:29.242Z,19.86
2022-09-14T06:18:30.658Z,19.86
2022-09-14T06:19:29.187Z,19.87
2022-09-14T06:20:30.357Z,19.89
2022-09-14T06:21:29.176Z,19.90
2022-09-14T06:22:29.865Z,19.94
2022-09-14T06:23:29.162Z,19.97
2022-09-14T06:24:30.148Z,19.98
2022-09-14T06:25:29.157Z,20.01
2022-09-14T06:26:30.729Z,20.02
2022-09-14T06:27:29.124Z,20.02
2022-09-14T06:28:30.121Z,20.05
2022-09-14T06:29:29.062Z,20.08
2022-09-14T06:30:29.837Z,20.10
2022-09-14T06:31:29.069Z,20.12
2022-09-14T06:32:29.107Z,20.15
2022-09-14T06:33:29.039Z,20.17
2022-09-14T06:34:29.004Z,20.20
2022-09-14T06:35:29.010Z,20.23
2022-09-14T06:36:28.998Z,20.25
2022-09-14T06:37:29.010Z,20.26
2022-09-14T06:38:28.981Z,20.30
2022-09-14T06:39:28.963Z,20.33
2022-09-14T06:40:28.997Z,20.34
2022-09-14T06:41:28.966Z,20.38
2022-09-14T06:42:28.943Z,20.41
2022-09-14T06:43:28.926Z,20.44
2022-09-14T06:44:28.923Z,20.46
2022-09-14T06:45:28.935Z,20.44
2022-09-14T06:46:28.892Z,20.46
2022-09-14T06:47:28.855Z,20.46
2022-09-14T06:48:28.904Z,20.48
2022-09-14T06:49:28.863Z,20.50
2022-09-14T06:50:28.834Z,20.54
2022-09-14T06:51:28.856Z,20.56
2022-09-14T06:52:33.554Z,20.58
2022-09-14T06:53:29.815Z,20.61
2022-09-14T06:54:28.815Z,20.64
2022-09-14T06:55:28.824Z,20.68
2022-09-14T06:56:28.776Z,20.72
2022-09-14T06:57:28.765Z,20.76
2022-09-14T06:58:28.767Z,20.81
2022-09-14T06:59:28.762Z,20.85
2022-09-14T07:00:28.701Z,20.90
2022-09-14T07:01:28.741Z,20.91
2022-09-14T07:02:28.900Z,20.96
2022-09-14T07:03:28.747Z,21.00
2022-09-14T07:04:28.689Z,21.03
2022-09-14T07:05:28.717Z,21.08
2022-09-14T07:06:28.670Z,21.11
2022-09-14T07:07:28.661Z,21.13
2022-09-14T07:08:28.660Z,21.18
2022-09-14T07:09:28.643Z,21.21
2022-09-14T07:10:28.594Z,21.24
2022-09-14T07:11:28.630Z,21.28
2022-09-14T07:12:28.610Z,21.30
2022-09-14T07:13:28.602Z,21.33
2022-09-14T07:14:32.241Z,21.36
2022-09-14T07:15:28.592Z,21.38
2022-09-14T07:16:28.576Z,21.38
2022-09-14T07:17:28.544Z,21.38
2022-09-14T07:18:28.532Z,21.40
2022-09-14T07:19:28.542Z,21.40
2022-09-14T07:20:28.539Z,21.45
2022-09-14T07:21:28.509Z,21.46
2022-09-14T07:22:28.482Z,21.49
2022-09-14T07:23:28.483Z,21.51
2022-09-14T07:24:28.446Z,21.53
2022-09-14T07:25:28.524Z,21.55
2022-09-14T07:26:28.434Z,21.58
2022-09-14T07:27:28.434Z,21.61
2022-09-14T07:28:28.446Z,21.63
2022-09-14T07:29:28.417Z,21.64
2022-09-14T07:30:28.455Z,21.67
2022-09-14T07:31:28.523Z,21.70
2022-09-14T07:32:28.349Z,21.71
2022-09-14T07:33:28.366Z,21.70
2022-09-14T07:34:28.359Z,21.68
2022-09-14T07:35:28.346Z,21.73
2022-09-14T07:36:31.587Z,21.74
2022-09-14T07:37:29.314Z,21.74
2022-09-14T07:38:48.576Z,21.77
2022-09-14T07:39:29.987Z,21.79
2022-09-14T07:40:28.414Z,21.81
2022-09-14T07:41:28.991Z,21.82
2022-09-14T07:42:28.283Z,21.86
2022-09-14T07:43:28.969Z,21.89
2022-09-14T07:44:28.262Z,21.91
2022-09-14T07:45:28.520Z,21.93
2022-09-14T07:46:28.321Z,21.98
2022-09-14T07:47:29.280Z,22.04
2022-09-14T07:48:28.241Z,22.06
2022-09-14T07:49:28.930Z,22.09
2022-09-14T07:50:28.197Z,22.15
2022-09-14T07:51:28.281Z,22.21
2022-09-14T07:52:28.182Z,22.24
2022-09-14T07:53:28.362Z,22.27
2022-09-14T07:54:28.172Z,22.31
2022-09-14T07:55:28.155Z,22.33
2022-09-14T07:56:28.131Z,22.38
2022-09-14T07:57:52.293Z,22.41
2022-09-14T07:58:29.111Z,22.44
2022-09-14T07:59:36.935Z,22.44
2022-09-14T08:00:29.064Z,22.45
2022-09-14T08:01:28.092Z,22.49
2022-09-14T08:02:28.148Z,22.52
2022-09-14T08:03:28.046Z,22.54
2022-09-14T08:04:28.055Z,22.57
2022-09-14T08:05:28.033Z,22.64
2022-09-14T08:06:28.006Z,22.74
2022-09-14T08:07:28.024Z,22.78
2022-09-14T08:08:28.009Z,22.81
2022-09-14T08:09:27.997Z,22.86
2022-09-14T08:10:27.976Z,22.93
2022-09-14T08:11:27.947Z,22.94
2022-09-14T08:12:27.958Z,22.96
2022-09-14T08:13:27.957Z,22.99
2022-09-14T08:14:27.949Z,23.04
2022-09-14T08:15:28.737Z,23.11
2022-09-14T08:16:27.961Z,23.15
2022-09-14T08:17:27.920Z,23.16
2022-09-14T08:18:27.881Z,23.21
2022-09-14T08:19:27.870Z,23.29
2022-09-14T08:20:27.846Z,23.35
2022-09-14T08:21:27.850Z,23.39
2022-09-14T08:22:27.850Z,23.47
2022-09-14T08:23:27.839Z,23.52
2022-09-14T08:24:27.840Z,23.59
2022-09-14T08:25:27.801Z,23.60
2022-09-14T08:26:27.782Z,23.67
2022-09-14T08:27:27.829Z,23.72
2022-09-14T08:28:27.772Z,23.74
2022-09-14T08:29:27.791Z,23.77
2022-09-14T08:30:27.737Z,23.84
2022-09-14T08:31:27.787Z,23.84
2022-09-14T08:32:27.763Z,23.82
2022-09-14T08:33:27.734Z,23.81
2022-09-14T08:34:27.735Z,23.82
2022-09-14T08:35:56.145Z,23.89
2022-09-14T08:36:28.674Z,23.89
2022-09-14T08:37:27.695Z,23.89
2022-09-14T08:38:27.706Z,23.89
2022-09-14T08:39:27.687Z,23.89
2022-09-14T08:40:27.721Z,23.86
2022-09-14T08:41:27.626Z,23.86
2022-09-14T08:42:27.616Z,23.82
2022-09-14T08:43:27.627Z,23.81
2022-09-14T08:44:27.627Z,23.82
2022-09-14T08:45:27.637Z,23.89
2022-09-14T08:46:27.578Z,23.94
2022-09-14T08:47:27.587Z,23.97
2022-09-14T08:48:27.554Z,24.04
2022-09-14T08:49:27.620Z,24.14
2022-09-14T08:50:27.623Z,24.19
2022-09-14T08:51:27.632Z,24.19
2022-09-14T08:52:28.549Z,24.27
2022-09-14T08:53:27.557Z,24.34
2022-09-14T08:54:28.202Z,24.42
2022-09-14T08:55:27.520Z,24.48
2022-09-14T08:56:27.601Z,24.55
2022-09-14T08:57:27.445Z,24.61
2022-09-14T08:58:28.664Z,24.64
2022-09-14T08:59:27.435Z,24.71
2022-09-14T09:00:28.102Z,24.79
2022-09-14T09:01:27.467Z,24.84
2022-09-14T09:02:27.897Z,24.83
2022-09-14T09:03:27.502Z,24.82
2022-09-14T09:04:27.445Z,24.74
2022-09-14T09:05:27.394Z,24.71
2022-09-14T09:06:27.411Z,24.67
2022-09-14T09:07:27.362Z,24.61
2022-09-14T09:08:27.376Z,24.59
2022-09-14T09:09:27.373Z,24.56
2022-09-14T09:10:27.327Z,24.52
2022-09-14T09:11:27.449Z,24.51
2022-09-14T09:12:27.297Z,24.52
2022-09-14T09:13:27.316Z,24.52
2022-09-14T09:14:27.276Z,24.52
2022-09-14T09:15:27.278Z,24.51
2022-09-14T09:16:27.319Z,24.48
2022-09-14T09:17:27.246Z,24.51
2022-09-14T09:18:27.258Z,24.53
2022-09-14T09:19:28.829Z,24.53
2022-09-14T09:20:27.202Z,24.59
2022-09-14T09:21:27.199Z,24.60
2022-09-14T09:22:27.192Z,24.67
2022-09-14T09:23:27.209Z,24.75
2022-09-14T09:24:27.161Z,24.82
2022-09-14T09:25:27.181Z,24.90
2022-09-14T09:26:27.152Z,24.98
2022-09-14T09:27:27.139Z,25.08
2022-09-14T09:28:27.118Z,25.23
2022-09-14T09:29:27.122Z,25.36
2022-09-14T09:30:27.096Z,25.48
2022-09-14T09:31:27.140Z,25.57
2022-09-14T09:32:27.104Z,25.67
2022-09-14T09:33:27.092Z,25.79
2022-09-14T09:34:27.062Z,25.89
2022-09-14T09:35:27.071Z,25.98
2022-09-14T09:36:27.584Z,26.01
2022-09-14T09:37:27.044Z,26.08
2022-09-14T09:38:27.034Z,26.06
2022-09-14T09:39:27.025Z,26.04
2022-09-14T09:40:27.069Z,25.93
2022-09-14T09:41:26.987Z,25.89
2022-09-14T09:42:27.009Z,25.83
2022-09-14T09:43:47.969Z,25.83
2022-09-14T09:44:27.976Z,25.91
2022-09-14T09:45:26.957Z,26.00
2022-09-14T09:46:26.981Z,26.03
2022-09-14T09:47:26.936Z,26.04
2022-09-14T09:48:26.908Z,25.98
2022-09-14T09:49:26.892Z,25.98
2022-09-14T09:50:26.917Z,25.98
2022-09-14T09:51:26.853Z,25.97
2022-09-14T09:52:26.890Z,26.00
2022-09-14T09:53:26.869Z,25.96
2022-09-14T09:54:26.871Z,25.94
2022-09-14T09:55:26.860Z,25.93
2022-09-14T09:56:26.831Z,25.90
2022-09-14T09:57:26.806Z,25.90
2022-09-14T09:58:26.841Z,25.94
2022-09-14T09:59:27.794Z,25.96
2022-09-14T10:00:26.867Z,26.01
2022-09-14T10:01:26.846Z,26.04
2022-09-14T10:02:26.871Z,26.08
2022-09-14T10:03:26.763Z,26.08
2022-09-14T10:04:26.753Z,26.09
2022-09-14T10:05:27.440Z,26.08
2022-09-14T10:06:26.724Z,26.12
2022-09-14T10:07:27.379Z,26.20
2022-09-14T10:08:26.704Z,26.24
2022-09-14T10:09:27.406Z,26.29
2022-09-14T10:10:26.694Z,26.38
2022-09-14T10:11:26.686Z,26.47
2022-09-14T10:12:26.645Z,26.50
2022-09-14T10:13:26.636Z,26.49
2022-09-14T10:14:26.676Z,26.49
2022-09-14T10:15:26.607Z,26.53
2022-09-14T10:16:26.650Z,26.56
2022-09-14T10:17:26.563Z,26.64
2022-09-14T10:18:26.620Z,26.69
2022-09-14T10:19:26.552Z,26.76
2022-09-14T10:20:26.596Z,26.79
2022-09-14T10:21:26.558Z,26.83
2022-09-14T10:22:26.857Z,26.84
2022-09-14T10:23:26.560Z,26.84
2022-09-14T10:24:26.530Z,26.88
2022-09-14T10:25:26.511Z,26.90
2022-09-14T10:26:26.520Z,26.88
2022-09-14T10:27:26.475Z,26.88
2022-09-14T10:28:26.509Z,26.93
2022-09-14T10:29:26.492Z,26.97
2022-09-14T10:30:26.466Z,27.02
2022-09-14T10:31:26.462Z,27.08
2022-09-14T10:32:26.454Z,27.13
2022-09-14T10:33:26.452Z,27.23
2022-09-14T10:34:26.414Z,27.34
2022-09-14T10:35:26.414Z,27.40
2022-09-14T10:36:26.378Z,27.42
2022-09-14T10:37:26.379Z,27.42
2022-09-14T10:38:26.685Z,27.38
2022-09-14T10:39:26.516Z,27.42
2022-09-14T10:40:26.394Z,27.38
2022-09-14T10:41:26.324Z,27.42
2022-09-14T10:42:26.348Z,27.40
2022-09-14T10:43:26.356Z,27.45
2022-09-14T10:44:26.310Z,27.52
2022-09-14T10:45:26.297Z,27.55
2022-09-14T10:46:26.340Z,27.55
2022-09-14T10:47:26.309Z,27.53
2022-09-14T10:48:26.339Z,27.58
2022-09-14T10:49:26.990Z,27.62
2022-09-14T10:50:26.299Z,27.61
2022-09-14T10:51:26.368Z,27.66
2022-09-14T10:52:26.260Z,27.74
2022-09-14T10:53:26.322Z,27.80
2022-09-14T10:54:26.264Z,27.88
2022-09-14T10:55:26.901Z,27.93
2022-09-14T10:56:26.204Z,28.01
2022-09-14T10:57:26.452Z,28.02
2022-09-14T10:58:26.183Z,28.02
2022-09-14T10:59:26.633Z,28.09
2022-09-14T11:00:26.193Z,28.13
2022-09-14T11:01:26.926Z,28.09
2022-09-14T11:02:26.232Z,28.01
2022-09-14T11:03:26.145Z,27.98
2022-09-14T11:04:26.116Z,27.96
2022-09-14T11:05:26.236Z,27.95
2022-09-14T11:06:26.135Z,28.02
2022-09-14T11:07:26.075Z,28.06
2022-09-14T11:08:26.038Z,28.11
2022-09-14T11:09:26.069Z,28.11
2022-09-14T11:10:26.083Z,28.05
2022-09-14T11:11:26.027Z,28.13
2022-09-14T11:12:26.699Z,28.17
2022-09-14T11:13:26.007Z,28.24
2022-09-14T11:14:26.958Z,28.30
2022-09-14T11:15:25.988Z,28.38
2022-09-14T11:16:26.068Z,28.45
2022-09-14T11:17:25.969Z,28.42
2022-09-14T11:18:25.940Z,28.54
2022-09-14T11:19:25.940Z,28.61
2022-09-14T11:20:25.928Z,28.65
2022-09-14T11:21:25.911Z,28.74
2022-09-14T11:22:25.942Z,28.82
2022-09-14T11:23:25.910Z,28.85
2022-09-14T11:24:25.894Z,28.83
2022-09-14T11:25:25.877Z,28.89
2022-09-14T11:26:25.882Z,29.00
2022-09-14T11:27:25.827Z,28.91
2022-09-14T11:28:25.873Z,28.88
2022-09-14T11:29:25.844Z,28.88
2022-09-14T11:30:25.800Z,28.92
2022-09-14T11:31:25.834Z,28.94
2022-09-14T11:32:25.812Z,29.03
2022-09-14T11:33:30.404Z,29.07
2022-09-14T11:34:26.776Z,29.02
2022-09-14T11:35:25.750Z,28.95
2022-09-14T11:36:25.777Z,28.95
2022-09-14T11:37:25.746Z,29.00
2022-09-14T11:38:25.749Z,29.08
2022-09-14T11:39:25.718Z,29.17
2022-09-14T11:40:25.752Z,29.25
2022-09-14T11:41:25.693Z,29.25
2022-09-14T11:42:25.709Z,29.27
2022-09-14T11:43:25.740Z,29.29
2022-09-14T11:44:25.670Z,29.33
2022-09-14T11:45:25.731Z,29.47
2022-09-14T11:46:25.778Z,29.67
2022-09-14T11:47:25.672Z,29.79
2022-09-14T11:48:42.247Z,29.85
2022-09-14T11:49:26.624Z,29.94
2022-09-14T11:50:25.622Z,29.99
2022-09-14T11:51:25.603Z,29.94
2022-09-14T11:52:25.622Z,29.91
2022-09-14T11:53:25.584Z,29.88
2022-09-14T11:54:25.569Z,29.88
2022-09-14T11:55:25.556Z,30.03
2022-09-14T11:56:25.555Z,30.01
2022-09-14T11:57:25.525Z,29.91
2022-09-14T11:58:25.534Z,29.79
2022-09-14T11:59:25.516Z,29.67
2022-09-14T12:00:25.516Z,29.49
2022-09-14T12:01:25.486Z,29.20
2022-09-14T12:02:25.487Z,29.07
2022-09-14T12:03:25.531Z,28.88
2022-09-14T12:04:25.457Z,28.70
2022-09-14T12:05:25.458Z,28.62
2022-09-14T12:06:25.453Z,28.60
2022-09-14T12:07:25.440Z,28.54
2022-09-14T12:08:25.458Z,28.43
2022-09-14T12:09:25.399Z,28.39
2022-09-14T12:10:25.401Z,28.30
2022-09-14T12:11:25.370Z,28.23
2022-09-14T12:12:25.392Z,28.18
2022-09-14T12:13:25.382Z,28.18
2022-09-14T12:14:25.371Z,28.15
2022-09-14T12:15:25.331Z,28.11
2022-09-14T12:16:25.347Z,28.11
2022-09-14T12:17:41.265Z,28.06
2022-09-14T12:18:26.315Z,28.06
2022-09-14T12:19:25.314Z,28.05
2022-09-14T12:20:25.293Z,28.01
2022-09-14T12:21:25.277Z,27.98
2022-09-14T12:22:25.265Z,27.98
2022-09-14T12:23:25.261Z,27.95
2022-09-14T12:24:25.246Z,27.95
2022-09-14T12:25:25.237Z,27.95
2022-09-14T12:26:25.224Z,27.93
2022-09-14T12:27:25.208Z,27.96
2022-09-14T12:28:25.216Z,27.96
2022-09-14T12:29:25.201Z,27.95
2022-09-14T12:30:25.206Z,27.91
2022-09-14T12:31:25.218Z,27.86
2022-09-14T12:32:25.163Z,27.86
2022-09-14T12:33:25.149Z,27.83
2022-09-14T12:34:25.161Z,27.81
2022-09-14T12:35:25.124Z,27.76
2022-09-14T12:36:25.120Z,27.74
2022-09-14T12:37:25.784Z,27.69
2022-09-14T12:38:25.131Z,27.65
2022-09-14T12:39:25.786Z,27.62
2022-09-14T12:40:25.170Z,27.59
2022-09-14T12:41:25.114Z,27.50
2022-09-14T12:42:25.544Z,27.45
2022-09-14T12:43:25.073Z,27.40
2022-09-14T12:44:25.043Z,27.34
2022-09-14T12:45:25.065Z,27.30
2022-09-14T12:46:25.829Z,27.27
2022-09-14T12:47:25.057Z,27.24
2022-09-14T12:48:25.705Z,27.21
2022-09-14T12:49:24.995Z,27.12
2022-09-14T12:50:26.110Z,27.05
2022-09-14T12:51:25.021Z,26.98
2022-09-14T12:52:26.577Z,26.94